sensor_id;sensor_type;location;lat;lon;timestamp;pressure;altitude;pressure_sealevel;temperature;humidity
22872;BME280;11603;44.910;8.630;2023-05-24T00:02:19;100295.09;;;20.28;100.00
22872;BME280;11603;44.910;8.630;2023-05-24T00:04:44;100290.66;;;20.27;100.00
22872;BME280;11603;44.910;8.630;2023-05-24T00:07:10;100303.22;;;20.28;100.00
22872;BME280;11603;44.910;8.630;2023-05-24T00:09:35;100303.38;;;20.26;100.00
22872;BME280;11603;44.910;8.630;2023-05-24T00:12:01;100300.84;;;20.25;100.00
22872;BME280;11603;44.910;8.630;2023-05-24T00:14:27;100305.75;;;20.21;100.00
22872;BME280;11603;44.910;8.630;2023-05-24T00:16:52;100296.06;;;20.19;100.00
22872;BME280;11603;44.910;8.630;2023-05-24T00:19:18;100297.09;;;20.18;100.00
22872;BME280;11603;44.910;8.630;2023-05-24T00:21:47;100302.53;;;20.18;100.00
22872;BME280;11603;44.910;8.630;2023-05-24T00:24:13;100302.69;;;20.16;100.00
22872;BME280;11603;44.910;8.630;2023-05-24T00:26:38;100304.53;;;20.16;100.00
22872;BME280;11603;44.910;8.630;2023-05-24T00:29:04;100307.94;;;20.18;100.00
22872;BME280;11603;44.910;8.630;2023-05-24T00:31:31;100299.09;;;20.16;100.00
22872;BME280;11603;44.910;8.630;2023-05-24T00:33:56;100299.44;;;20.13;100.00
22872;BME280;11603;44.910;8.630;2023-05-24T00:36:22;100305.72;;;20.13;100.00
22872;BME280;11603;44.910;8.630;2023-05-24T00:38:48;100303.00;;;20.13;100.00
22872;BME280;11603;44.910;8.630;2023-05-24T00:41:15;100296.56;;;20.14;100.00
22872;BME280;11603;44.910;8.630;2023-05-24T00:43:40;100288.59;;;20.13;100.00
22872;BME280;11603;44.910;8.630;2023-05-24T00:46:42;100287.03;;;20.10;100.00
22872;BME280;11603;44.910;8.630;2023-05-24T00:49:08;100288.75;;;20.11;100.00
22872;BME280;11603;44.910;8.630;2023-05-24T00:51:34;100282.63;;;20.09;100.00
22872;BME280;11603;44.910;8.630;2023-05-24T00:54:01;100287.72;;;20.04;100.00
22872;BME280;11603;44.910;8.630;2023-05-24T00:56:27;100283.22;;;19.95;100.00
22872;BME280;11603;44.910;8.630;2023-05-24T00:58:53;100285.22;;;19.85;100.00
22872;BME280;11603;44.910;8.630;2023-05-24T01:01:20;100294.34;;;19.76;100.00
22872;BME280;11603;44.910;8.630;2023-05-24T01:03:53;100284.59;;;19.57;100.00
22872;BME280;11603;44.910;8.630;2023-05-24T01:06:19;100279.78;;;19.51;100.00
22872;BME280;11603;44.910;8.630;2023-05-24T01:09:03;100291.94;;;19.47;100.00
22872;BME280;11603;44.910;8.630;2023-05-24T01:11:42;100291.72;;;19.40;100.00
22872;BME280;11603;44.910;8.630;2023-05-24T01:14:28;100290.44;;;19.27;100.00
22872;BME280;11603;44.910;8.630;2023-05-24T01:17:14;100288.44;;;19.11;100.00
22872;BME280;11603;44.910;8.630;2023-05-24T01:25:48;100277.72;;;18.84;100.00
22872;BME280;11603;44.910;8.630;2023-05-24T01:28:18;100275.06;;;18.74;100.00
22872;BME280;11603;44.910;8.630;2023-05-24T01:30:45;100287.16;;;18.62;100.00
22872;BME280;11603;44.910;8.630;2023-05-24T01:33:12;100282.38;;;18.56;100.00
22872;BME280;11603;44.910;8.630;2023-05-24T01:35:38;100284.78;;;18.49;100.00
22872;BME280;11603;44.910;8.630;2023-05-24T01:38:06;100283.09;;;18.48;100.00
22872;BME280;11603;44.910;8.630;2023-05-24T01:40:33;100277.66;;;18.31;100.00
22872;BME280;11603;44.910;8.630;2023-05-24T01:43:14;100286.00;;;18.19;100.00
22872;BME280;11603;44.910;8.630;2023-05-24T01:45:54;100296.72;;;18.11;100.00
22872;BME280;11603;44.910;8.630;2023-05-24T01:48:50;100291.94;;;18.05;100.00
22872;BME280;11603;44.910;8.630;2023-05-24T01:51:21;100293.19;;;18.01;100.00
22872;BME280;11603;44.910;8.630;2023-05-24T01:53:48;100294.56;;;17.88;100.00
22872;BME280;11603;44.910;8.630;2023-05-24T01:56:16;100306.69;;;17.84;100.00
22872;BME280;11603;44.910;8.630;2023-05-24T01:58:43;100310.53;;;17.81;100.00
22872;BME280;11603;44.910;8.630;2023-05-24T02:01:10;100300.13;;;17.86;100.00
22872;BME280;11603;44.910;8.630;2023-05-24T02:03:37;100298.56;;;17.84;100.00
22872;BME280;11603;44.910;8.630;2023-05-24T02:06:03;100293.16;;;17.84;100.00
22872;BME280;11603;44.910;8.630;2023-05-24T02:08:30;100291.72;;;17.89;100.00
22872;BME280;11603;44.910;8.630;2023-05-24T02:10:55;100291.72;;;17.89;100.00
22872;BME280;11603;44.910;8.630;2023-05-24T02:13:21;100286.75;;;17.85;100.00
22872;BME280;11603;44.910;8.630;2023-05-24T02:15:46;100297.59;;;17.85;100.00
22872;BME280;11603;44.910;8.630;2023-05-24T02:18:12;100298.84;;;17.81;100.00
22872;BME280;11603;44.910;8.630;2023-05-24T02:20:39;100298.75;;;17.72;100.00
22872;BME280;11603;44.910;8.630;2023-05-24T02:23:07;100297.03;;;17.71;100.00
22872;BME280;11603;44.910;8.630;2023-05-24T02:25:35;100295.19;;;17.72;100.00
22872;BME280;11603;44.910;8.630;2023-05-24T02:28:01;100293.63;;;17.69;100.00
22872;BME280;11603;44.910;8.630;2023-05-24T02:30:26;100280.94;;;17.70;100.00
22872;BME280;11603;44.910;8.630;2023-05-24T02:32:52;100285.78;;;17.76;100.00
22872;BME280;11603;44.910;8.630;2023-05-24T02:35:18;100282.63;;;17.81;100.00
22872;BME280;11603;44.910;8.630;2023-05-24T02:37:44;100282.63;;;17.81;100.00
22872;BME280;11603;44.910;8.630;2023-05-24T02:40:10;100276.00;;;17.65;100.00
22872;BME280;11603;44.910;8.630;2023-05-24T02:42:35;100288.38;;;17.58;100.00
22872;BME280;11603;44.910;8.630;2023-05-24T02:45:01;100281.41;;;17.56;100.00
22872;BME280;11603;44.910;8.630;2023-05-24T02:47:27;100284.44;;;17.53;100.00
22872;BME280;11603;44.910;8.630;2023-05-24T02:49:53;100279.16;;;17.51;100.00
22872;BME280;11603;44.910;8.630;2023-05-24T02:52:19;100288.97;;;17.52;100.00
22872;BME280;11603;44.910;8.630;2023-05-24T02:54:46;100276.91;;;17.47;100.00
22872;BME280;11603;44.910;8.630;2023-05-24T02:57:12;100279.88;;;17.44;100.00
22872;BME280;11603;44.910;8.630;2023-05-24T02:59:41;100268.66;;;17.29;100.00
22872;BME280;11603;44.910;8.630;2023-05-24T03:02:07;100287.19;;;17.24;100.00
22872;BME280;11603;44.910;8.630;2023-05-24T03:04:32;100295.88;;;17.18;100.00
22872;BME280;11603;44.910;8.630;2023-05-24T03:06:58;100283.22;;;17.09;100.00
22872;BME280;11603;44.910;8.630;2023-05-24T03:09:23;100290.91;;;17.13;100.00
22872;BME280;11603;44.910;8.630;2023-05-24T03:11:49;100295.44;;;17.13;100.00
22872;BME280;11603;44.910;8.630;2023-05-24T03:14:16;100287.78;;;17.08;100.00
22872;BME280;11603;44.910;8.630;2023-05-24T03:16:42;100281.38;;;17.09;100.00
22872;BME280;11603;44.910;8.630;2023-05-24T03:19:07;100286.78;;;17.09;100.00
22872;BME280;11603;44.910;8.630;2023-05-24T03:21:32;100282.50;;;17.07;100.00
22872;BME280;11603;44.910;8.630;2023-05-24T03:23:58;100281.22;;;17.01;100.00
22872;BME280;11603;44.910;8.630;2023-05-24T03:26:24;100275.28;;;16.98;100.00
22872;BME280;11603;44.910;8.630;2023-05-24T03:28:51;100281.84;;;16.95;100.00
22872;BME280;11603;44.910;8.630;2023-05-24T03:31:20;100285.97;;;16.89;100.00
22872;BME280;11603;44.910;8.630;2023-05-24T03:33:49;100296.19;;;16.86;100.00
22872;BME280;11603;44.910;8.630;2023-05-24T03:36:15;100294.31;;;16.86;100.00
22872;BME280;11603;44.910;8.630;2023-05-24T03:38:41;100292.63;;;16.85;100.00
22872;BME280;11603;44.910;8.630;2023-05-24T03:41:07;100293.75;;;16.92;100.00
22872;BME280;11603;44.910;8.630;2023-05-24T03:43:33;100294.63;;;16.93;100.00
22872;BME280;11603;44.910;8.630;2023-05-24T03:46:01;100291.63;;;16.96;100.00
22872;BME280;11603;44.910;8.630;2023-05-24T03:48:26;100292.06;;;16.91;100.00
22872;BME280;11603;44.910;8.630;2023-05-24T03:50:52;100287.63;;;16.90;100.00
22872;BME280;11603;44.910;8.630;2023-05-24T03:53:18;100287.25;;;16.95;100.00
22872;BME280;11603;44.910;8.630;2023-05-24T03:55:44;100291.47;;;16.98;100.00
22872;BME280;11603;44.910;8.630;2023-05-24T03:58:10;100293.63;;;17.04;100.00
22872;BME280;11603;44.910;8.630;2023-05-24T04:00:37;100299.16;;;17.02;100.00
22872;BME280;11603;44.910;8.630;2023-05-24T04:03:02;100295.59;;;17.02;100.00
22872;BME280;11603;44.910;8.630;2023-05-24T04:05:31;100290.91;;;17.04;100.00
22872;BME280;11603;44.910;8.630;2023-05-24T04:07:57;100294.03;;;17.09;100.00
22872;BME280;11603;44.910;8.630;2023-05-24T04:10:23;100298.00;;;17.14;100.00
22872;BME280;11603;44.910;8.630;2023-05-24T04:12:48;100298.44;;;17.19;100.00
22872;BME280;11603;44.910;8.630;2023-05-24T04:15:14;100299.28;;;17.20;100.00
22872;BME280;11603;44.910;8.630;2023-05-24T04:17:43;100307.94;;;17.23;100.00
22872;BME280;11603;44.910;8.630;2023-05-24T04:20:10;100298.72;;;17.26;100.00
22872;BME280;11603;44.910;8.630;2023-05-24T04:22:37;100296.88;;;17.26;100.00
22872;BME280;11603;44.910;8.630;2023-05-24T04:25:03;100297.28;;;17.31;100.00
22872;BME280;11603;44.910;8.630;2023-05-24T04:27:30;100302.81;;;17.40;100.00
22872;BME280;11603;44.910;8.630;2023-05-24T04:29:57;100294.56;;;17.41;100.00
22872;BME280;11603;44.910;8.630;2023-05-24T04:32:22;100292.13;;;17.48;100.00
22872;BME280;11603;44.910;8.630;2023-05-24T04:34:48;100290.41;;;17.47;100.00
22872;BME280;11603;44.910;8.630;2023-05-24T04:37:15;100287.97;;;17.53;100.00
22872;BME280;11603;44.910;8.630;2023-05-24T04:39:45;100299.34;;;17.66;100.00
22872;BME280;11603;44.910;8.630;2023-05-24T04:42:11;100298.72;;;17.82;100.00
22872;BME280;11603;44.910;8.630;2023-05-24T04:44:39;100290.94;;;17.97;100.00
22872;BME280;11603;44.910;8.630;2023-05-24T04:47:05;100298.88;;;18.08;100.00
22872;BME280;11603;44.910;8.630;2023-05-24T04:49:31;100300.44;;;18.10;100.00
22872;BME280;11603;44.910;8.630;2023-05-24T04:51:56;100306.53;;;18.12;100.00
22872;BME280;11603;44.910;8.630;2023-05-24T04:54:22;100319.09;;;18.13;100.00
22872;BME280;11603;44.910;8.630;2023-05-24T04:56:48;100311.28;;;18.10;100.00
22872;BME280;11603;44.910;8.630;2023-05-24T04:59:13;100310.69;;;18.07;100.00
22872;BME280;11603;44.910;8.630;2023-05-24T05:01:39;100314.56;;;18.04;100.00
22872;BME280;11603;44.910;8.630;2023-05-24T05:04:04;100313.28;;;18.08;100.00
22872;BME280;11603;44.910;8.630;2023-05-24T05:06:30;100317.72;;;18.00;100.00
22872;BME280;11603;44.910;8.630;2023-05-24T05:08:58;100316.72;;;18.01;100.00
22872;BME280;11603;44.910;8.630;2023-05-24T05:11:23;100307.06;;;17.98;100.00
22872;BME280;11603;44.910;8.630;2023-05-24T05:13:50;100310.41;;;18.10;100.00
22872;BME280;11603;44.910;8.630;2023-05-24T05:16:15;100320.72;;;18.24;100.00
22872;BME280;11603;44.910;8.630;2023-05-24T05:18:42;100309.31;;;18.30;100.00
22872;BME280;11603;44.910;8.630;2023-05-24T05:21:07;100324.88;;;18.46;100.00
22872;BME280;11603;44.910;8.630;2023-05-24T05:23:32;100316.41;;;18.58;100.00
22872;BME280;11603;44.910;8.630;2023-05-24T05:25:58;100321.47;;;18.71;100.00
22872;BME280;11603;44.910;8.630;2023-05-24T05:28:23;100322.00;;;18.92;100.00
22872;BME280;11603;44.910;8.630;2023-05-24T05:30:49;100323.16;;;19.08;100.00
22872;BME280;11603;44.910;8.630;2023-05-24T05:33:14;100325.63;;;19.19;100.00
22872;BME280;11603;44.910;8.630;2023-05-24T05:35:40;100335.00;;;19.24;100.00
22872;BME280;11603;44.910;8.630;2023-05-24T05:38:06;100333.25;;;19.15;100.00
22872;BME280;11603;44.910;8.630;2023-05-24T05:40:31;100330.91;;;19.20;100.00
22872;BME280;11603;44.910;8.630;2023-05-24T05:42:56;100335.13;;;19.40;100.00
22872;BME280;11603;44.910;8.630;2023-05-24T05:45:23;100336.59;;;19.53;100.00
22872;BME280;11603;44.910;8.630;2023-05-24T05:47:48;100328.56;;;19.69;100.00
22872;BME280;11603;44.910;8.630;2023-05-24T05:50:14;100330.50;;;19.76;100.00
22872;BME280;11603;44.910;8.630;2023-05-24T05:52:39;100326.13;;;19.83;100.00
22872;BME280;11603;44.910;8.630;2023-05-24T05:55:05;100329.00;;;19.82;100.00
22872;BME280;11603;44.910;8.630;2023-05-24T05:57:31;100322.97;;;19.70;100.00
22872;BME280;11603;44.910;8.630;2023-05-24T05:59:56;100320.69;;;19.83;100.00
22872;BME280;11603;44.910;8.630;2023-05-24T06:02:22;100325.81;;;19.95;100.00
22872;BME280;11603;44.910;8.630;2023-05-24T06:04:48;100325.38;;;20.07;100.00
22872;BME280;11603;44.910;8.630;2023-05-24T06:07:14;100321.88;;;20.23;100.00
22872;BME280;11603;44.910;8.630;2023-05-24T06:09:39;100320.94;;;20.32;100.00
22872;BME280;11603;44.910;8.630;2023-05-24T06:12:05;100314.00;;;20.38;100.00
22872;BME280;11603;44.910;8.630;2023-05-24T06:14:30;100327.72;;;20.36;100.00
22872;BME280;11603;44.910;8.630;2023-05-24T06:16:56;100326.22;;;20.34;100.00
22872;BME280;11603;44.910;8.630;2023-05-24T06:19:22;100323.34;;;20.35;100.00
22872;BME280;11603;44.910;8.630;2023-05-24T06:21:48;100328.59;;;20.37;100.00
22872;BME280;11603;44.910;8.630;2023-05-24T06:24:15;100331.66;;;20.42;100.00
22872;BME280;11603;44.910;8.630;2023-05-24T06:26:45;100328.47;;;20.46;100.00
22872;BME280;11603;44.910;8.630;2023-05-24T06:29:11;100325.00;;;20.36;100.00
22872;BME280;11603;44.910;8.630;2023-05-24T06:31:36;100328.78;;;20.35;100.00
22872;BME280;11603;44.910;8.630;2023-05-24T06:34:02;100326.56;;;20.39;100.00
22872;BME280;11603;44.910;8.630;2023-05-24T06:36:27;100334.50;;;20.32;100.00
22872;BME280;11603;44.910;8.630;2023-05-24T06:38:53;100332.97;;;20.29;100.00
22872;BME280;11603;44.910;8.630;2023-05-24T06:41:18;100332.84;;;20.39;100.00
22872;BME280;11603;44.910;8.630;2023-05-24T06:43:44;100333.81;;;20.30;100.00
22872;BME280;11603;44.910;8.630;2023-05-24T06:46:10;100332.09;;;20.29;100.00
22872;BME280;11603;44.910;8.630;2023-05-24T06:48:36;100335.84;;;20.28;100.00
22872;BME280;11603;44.910;8.630;2023-05-24T06:51:02;100335.94;;;20.44;100.00
22872;BME280;11603;44.910;8.630;2023-05-24T06:53:28;100336.31;;;20.65;100.00
22872;BME280;11603;44.910;8.630;2023-05-24T06:55:53;100339.06;;;20.73;100.00
22872;BME280;11603;44.910;8.630;2023-05-24T06:58:19;100330.59;;;20.85;100.00
22872;BME280;11603;44.910;8.630;2023-05-24T07:00:44;100333.84;;;20.96;100.00
22872;BME280;11603;44.910;8.630;2023-05-24T07:03:11;100328.22;;;20.98;100.00
22872;BME280;11603;44.910;8.630;2023-05-24T07:05:37;100330.94;;;21.06;100.00
22872;BME280;11603;44.910;8.630;2023-05-24T07:08:03;100318.69;;;20.86;100.00
22872;BME280;11603;44.910;8.630;2023-05-24T07:10:28;100326.34;;;20.90;100.00
22872;BME280;11603;44.910;8.630;2023-05-24T07:12:54;100329.09;;;20.98;100.00
22872;BME280;11603;44.910;8.630;2023-05-24T07:15:20;100326.53;;;21.05;100.00
22872;BME280;11603;44.910;8.630;2023-05-24T07:17:46;100331.13;;;20.96;100.00
22872;BME280;11603;44.910;8.630;2023-05-24T07:20:12;100322.28;;;21.10;100.00
22872;BME280;11603;44.910;8.630;2023-05-24T07:22:39;100320.28;;;21.21;100.00
22872;BME280;11603;44.910;8.630;2023-05-24T07:25:05;100318.41;;;21.21;100.00
22872;BME280;11603;44.910;8.630;2023-05-24T07:27:31;100323.84;;;21.29;100.00
22872;BME280;11603;44.910;8.630;2023-05-24T07:29:56;100321.78;;;21.31;100.00
22872;BME280;11603;44.910;8.630;2023-05-24T07:32:22;100324.34;;;21.41;100.00
22872;BME280;11603;44.910;8.630;2023-05-24T07:34:48;100324.34;;;21.49;100.00
22872;BME280;11603;44.910;8.630;2023-05-24T07:37:14;100325.53;;;21.38;100.00
22872;BME280;11603;44.910;8.630;2023-05-24T07:39:41;100320.25;;;21.37;100.00
22872;BME280;11603;44.910;8.630;2023-05-24T07:42:07;100316.34;;;21.47;100.00
22872;BME280;11603;44.910;8.630;2023-05-24T07:44:33;100311.22;;;21.61;100.00
22872;BME280;11603;44.910;8.630;2023-05-24T07:46:59;100311.84;;;21.79;100.00
22872;BME280;11603;44.910;8.630;2023-05-24T07:49:26;100316.44;;;21.94;100.00
22872;BME280;11603;44.910;8.630;2023-05-24T07:51:52;100309.44;;;22.00;100.00
22872;BME280;11603;44.910;8.630;2023-05-24T07:54:18;100305.16;;;22.06;100.00
22872;BME280;11603;44.910;8.630;2023-05-24T07:56:44;100309.75;;;22.13;100.00
22872;BME280;11603;44.910;8.630;2023-05-24T07:59:09;100299.13;;;22.26;100.00
22872;BME280;11603;44.910;8.630;2023-05-24T08:01:35;100303.16;;;22.38;100.00
22872;BME280;11603;44.910;8.630;2023-05-24T08:04:01;100303.63;;;22.42;100.00
22872;BME280;11603;44.910;8.630;2023-05-24T08:06:30;100302.44;;;22.45;100.00
22872;BME280;11603;44.910;8.630;2023-05-24T08:08:57;100306.19;;;22.44;100.00
22872;BME280;11603;44.910;8.630;2023-05-24T08:11:22;100306.69;;;22.47;100.00
22872;BME280;11603;44.910;8.630;2023-05-24T08:13:48;100302.13;;;22.70;100.00
22872;BME280;11603;44.910;8.630;2023-05-24T08:16:13;100293.84;;;22.87;100.00
22872;BME280;11603;44.910;8.630;2023-05-24T08:18:39;100302.22;;;22.85;100.00
22872;BME280;11603;44.910;8.630;2023-05-24T08:21:04;100306.09;;;22.91;100.00
22872;BME280;11603;44.910;8.630;2023-05-24T08:23:30;100304.22;;;22.91;100.00
22872;BME280;11603;44.910;8.630;2023-05-24T08:25:56;100302.94;;;23.02;100.00
22872;BME280;11603;44.910;8.630;2023-05-24T08:28:21;100296.50;;;23.17;100.00
22872;BME280;11603;44.910;8.630;2023-05-24T08:30:47;100302.13;;;23.16;100.00
22872;BME280;11603;44.910;8.630;2023-05-24T08:33:12;100294.16;;;23.29;100.00
22872;BME280;11603;44.910;8.630;2023-05-24T08:35:38;100294.41;;;23.42;100.00
22872;BME280;11603;44.910;8.630;2023-05-24T08:38:04;100300.28;;;23.54;100.00
22872;BME280;11603;44.910;8.630;2023-05-24T08:40:30;100307.81;;;23.52;100.00
22872;BME280;11603;44.910;8.630;2023-05-24T08:42:58;100303.59;;;23.49;100.00
22872;BME280;11603;44.910;8.630;2023-05-24T08:45:25;100300.94;;;23.56;100.00
22872;BME280;11603;44.910;8.630;2023-05-24T08:47:51;100300.97;;;23.71;100.00
22872;BME280;11603;44.910;8.630;2023-05-24T08:50:16;100298.13;;;23.64;100.00
22872;BME280;11603;44.910;8.630;2023-05-24T08:52:42;100292.56;;;23.72;100.00
22872;BME280;11603;44.910;8.630;2023-05-24T08:55:10;100291.47;;;23.81;100.00
22872;BME280;11603;44.910;8.630;2023-05-24T08:57:37;100283.63;;;23.93;100.00
22872;BME280;11603;44.910;8.630;2023-05-24T09:00:07;100284.13;;;23.96;100.00
22872;BME280;11603;44.910;8.630;2023-05-24T09:02:37;100287.88;;;24.10;100.00
22872;BME280;11603;44.910;8.630;2023-05-24T09:05:03;100285.72;;;24.20;100.00
22872;BME280;11603;44.910;8.630;2023-05-24T09:07:30;100281.06;;;24.35;99.72
22872;BME280;11603;44.910;8.630;2023-05-24T09:09:59;100280.19;;;24.49;99.75
22872;BME280;11603;44.910;8.630;2023-05-24T09:12:26;100275.28;;;24.60;97.28
22872;BME280;11603;44.910;8.630;2023-05-24T09:14:54;100275.31;;;24.66;98.40
22872;BME280;11603;44.910;8.630;2023-05-24T09:17:20;100271.88;;;24.79;99.51
22872;BME280;11603;44.910;8.630;2023-05-24T09:19:48;100269.72;;;24.89;96.18
22872;BME280;11603;44.910;8.630;2023-05-24T09:22:15;100274.00;;;24.98;95.81
22872;BME280;11603;44.910;8.630;2023-05-24T09:24:48;100269.78;;;24.96;94.39
22872;BME280;11603;44.910;8.630;2023-05-24T09:27:17;100269.19;;;25.00;92.26
22872;BME280;11603;44.910;8.630;2023-05-24T09:29:46;100265.41;;;25.01;93.45
22872;BME280;11603;44.910;8.630;2023-05-24T09:32:17;100260.56;;;25.03;94.85
22872;BME280;11603;44.910;8.630;2023-05-24T09:34:44;100257.72;;;25.11;97.39
22872;BME280;11603;44.910;8.630;2023-05-24T09:37:17;100257.69;;;25.33;98.90
22872;BME280;11603;44.910;8.630;2023-05-24T09:39:44;100254.59;;;25.42;96.51
22872;BME280;11603;44.910;8.630;2023-05-24T09:42:23;100245.34;;;25.50;92.24
22872;BME280;11603;44.910;8.630;2023-05-24T09:45:03;100254.03;;;25.53;86.63
22872;BME280;11603;44.910;8.630;2023-05-24T09:47:35;100250.50;;;25.59;84.99
22872;BME280;11603;44.910;8.630;2023-05-24T09:50:02;100249.03;;;25.57;82.88
22872;BME280;11603;44.910;8.630;2023-05-24T09:52:28;100249.31;;;25.68;83.12
22872;BME280;11603;44.910;8.630;2023-05-24T09:54:54;100243.06;;;25.81;82.34
22872;BME280;11603;44.910;8.630;2023-05-24T09:57:19;100243.75;;;25.90;80.52
22872;BME280;11603;44.910;8.630;2023-05-24T09:59:48;100249.91;;;25.98;82.45
22872;BME280;11603;44.910;8.630;2023-05-24T10:02:14;100237.94;;;26.12;80.02
22872;BME280;11603;44.910;8.630;2023-05-24T10:04:40;100247.69;;;26.22;74.26
22872;BME280;11603;44.910;8.630;2023-05-24T10:07:06;100239.50;;;26.28;74.80
22872;BME280;11603;44.910;8.630;2023-05-24T10:09:33;100242.69;;;26.32;76.07
22872;BME280;11603;44.910;8.630;2023-05-24T10:12:03;100242.91;;;26.43;71.73
22872;BME280;11603;44.910;8.630;2023-05-24T10:14:38;100237.47;;;26.50;66.67
22872;BME280;11603;44.910;8.630;2023-05-24T10:17:05;100238.13;;;26.59;67.07
22872;BME280;11603;44.910;8.630;2023-05-24T10:19:34;100239.00;;;26.72;68.25
22872;BME280;11603;44.910;8.630;2023-05-24T10:22:02;100232.47;;;26.73;71.11
22872;BME280;11603;44.910;8.630;2023-05-24T10:24:38;100229.69;;;26.80;66.15
22872;BME280;11603;44.910;8.630;2023-05-24T10:27:12;100229.72;;;26.86;67.03
22872;BME280;11603;44.910;8.630;2023-05-24T10:32:12;100218.34;;;27.03;65.07
22872;BME280;11603;44.910;8.630;2023-05-24T10:34:39;100215.00;;;27.20;59.32
22872;BME280;11603;44.910;8.630;2023-05-24T10:37:05;100213.09;;;27.21;60.33
22872;BME280;11603;44.910;8.630;2023-05-24T10:39:32;100212.66;;;27.24;61.26
22872;BME280;11603;44.910;8.630;2023-05-24T10:42:05;100205.91;;;27.26;59.85
22872;BME280;11603;44.910;8.630;2023-05-24T10:44:31;100211.56;;;27.45;63.56
22872;BME280;11603;44.910;8.630;2023-05-24T10:47:10;100211.78;;;27.63;62.62
22872;BME280;11603;44.910;8.630;2023-05-24T10:49:38;100206.31;;;27.56;62.05
22872;BME280;11603;44.910;8.630;2023-05-24T10:52:11;100203.53;;;27.43;61.01
22872;BME280;11603;44.910;8.630;2023-05-24T10:54:38;100204.81;;;27.54;66.35
22872;BME280;11603;44.910;8.630;2023-05-24T10:57:05;100200.56;;;27.64;62.65
22872;BME280;11603;44.910;8.630;2023-05-24T10:59:35;100191.66;;;27.69;63.80
22872;BME280;11603;44.910;8.630;2023-05-24T11:02:06;100197.59;;;27.66;66.47
22872;BME280;11603;44.910;8.630;2023-05-24T11:04:38;100192.28;;;27.77;65.46
22872;BME280;11603;44.910;8.630;2023-05-24T11:07:06;100192.03;;;27.86;63.58
22872;BME280;11603;44.910;8.630;2023-05-24T11:09:37;100181.28;;;27.84;65.26
22872;BME280;11603;44.910;8.630;2023-05-24T11:12:15;100171.91;;;27.92;61.39
22872;BME280;11603;44.910;8.630;2023-05-24T11:14:50;100167.66;;;27.96;62.10
22872;BME280;11603;44.910;8.630;2023-05-24T11:17:19;100159.28;;;27.84;61.05
22872;BME280;11603;44.910;8.630;2023-05-24T11:22:13;100150.28;;;28.02;62.50
22872;BME280;11603;44.910;8.630;2023-05-24T11:24:42;100157.13;;;27.93;63.86
22872;BME280;11603;44.910;8.630;2023-05-24T11:27:10;100145.00;;;28.00;63.66
22872;BME280;11603;44.910;8.630;2023-05-24T11:29:44;100146.19;;;28.24;65.38
22872;BME280;11603;44.910;8.630;2023-05-24T11:32:17;100136.25;;;28.23;65.82
22872;BME280;11603;44.910;8.630;2023-05-24T11:34:47;100133.34;;;28.43;62.13
22872;BME280;11603;44.910;8.630;2023-05-24T11:37:12;100133.81;;;28.40;62.32
22872;BME280;11603;44.910;8.630;2023-05-24T11:39:39;100128.28;;;28.46;62.51
22872;BME280;11603;44.910;8.630;2023-05-24T11:42:08;100128.19;;;28.53;62.57
22872;BME280;11603;44.910;8.630;2023-05-24T11:44:35;100127.84;;;28.43;63.14
22872;BME280;11603;44.910;8.630;2023-05-24T11:47:04;100120.81;;;28.22;64.09
22872;BME280;11603;44.910;8.630;2023-05-24T11:49:29;100124.03;;;28.44;66.78
22872;BME280;11603;44.910;8.630;2023-05-24T11:51:56;100127.19;;;28.47;66.08
22872;BME280;11603;44.910;8.630;2023-05-24T11:54:23;100123.38;;;28.48;65.87
22872;BME280;11603;44.910;8.630;2023-05-24T11:56:49;100129.22;;;28.58;66.75
22872;BME280;11603;44.910;8.630;2023-05-24T11:59:26;100116.09;;;28.60;64.53
22872;BME280;11603;44.910;8.630;2023-05-24T12:02:00;100118.56;;;28.69;65.14
22872;BME280;11603;44.910;8.630;2023-05-24T12:04:27;100111.97;;;28.70;67.01
22872;BME280;11603;44.910;8.630;2023-05-24T12:06:53;100111.75;;;28.78;66.27
22872;BME280;11603;44.910;8.630;2023-05-24T12:09:19;100107.31;;;28.77;64.41
22872;BME280;11603;44.910;8.630;2023-05-24T12:11:48;100110.06;;;28.77;64.03
22872;BME280;11603;44.910;8.630;2023-05-24T12:14:23;100102.47;;;28.72;64.20
22872;BME280;11603;44.910;8.630;2023-05-24T12:16:53;100102.97;;;28.87;63.27
22872;BME280;11603;44.910;8.630;2023-05-24T12:19:21;100095.72;;;29.11;60.84
22872;BME280;11603;44.910;8.630;2023-05-24T12:21:47;100099.22;;;29.25;61.17
22872;BME280;11603;44.910;8.630;2023-05-24T12:24:14;100090.63;;;29.15;60.12
22872;BME280;11603;44.910;8.630;2023-05-24T12:26:42;100089.69;;;29.21;59.34
22872;BME280;11603;44.910;8.630;2023-05-24T12:29:12;100090.94;;;29.25;61.38
22872;BME280;11603;44.910;8.630;2023-05-24T12:31:39;100085.69;;;29.41;60.33
22872;BME280;11603;44.910;8.630;2023-05-24T12:34:06;100092.66;;;29.44;62.77
22872;BME280;11603;44.910;8.630;2023-05-24T12:36:32;100082.41;;;29.51;64.16
22872;BME280;11603;44.910;8.630;2023-05-24T12:39:04;100083.06;;;29.65;60.92
22872;BME280;11603;44.910;8.630;2023-05-24T12:41:29;100075.06;;;29.75;60.94
22872;BME280;11603;44.910;8.630;2023-05-24T12:43:56;100078.69;;;29.94;61.14
22872;BME280;11603;44.910;8.630;2023-05-24T12:46:21;100083.66;;;30.15;57.63
22872;BME280;11603;44.910;8.630;2023-05-24T12:48:47;100073.63;;;30.32;57.62
22872;BME280;11603;44.910;8.630;2023-05-24T12:51:13;100071.00;;;30.37;57.96
22872;BME280;11603;44.910;8.630;2023-05-24T12:53:38;100074.50;;;30.44;59.27
22872;BME280;11603;44.910;8.630;2023-05-24T12:56:04;100068.38;;;30.42;58.94